Cincinnati, Ohio
Traffic Map
Current Weather Conditions
Cincinnati, Ohio
Broken Clouds
Broken Clouds
45°
Feels Like: 38°
Wind Chill: 38° Ceiling: 4800
Heat Index: 45° Visibility: 10mi
Dew Point: 32° Wind: 16mph
Humidity: 60% Direction: 230° (SW)
Pressure: 29.8in Gusts: 22mph
Raw Report DataKLUK 242253Z 23014G19KT 10SM BKN048 07/00 A2980 RMK AO2 PK WND 23028/2155 SLP092 T00720000
Traffic Incident Summary
Active as of:
Severity:
Category:
InformationThere was an issue retrieving the traffic information for this location. Please try a different location or try again shortly.
Advertisements
Track Severe Weather on mobile